• Join FlightAware (Why Join?)
  • Login
  • US Flag 
01:48PM EDT


 

Airport Tracker/Info


-or-


 

Live Flight TrackerFlight Track Log ✈ UAL165 ✈ 20-Apr-2013 ✈ PGUM - RJFF / FUK

Flight Track Log - Related Links

Times and Time Zones

All times are in EDT time to prevent confusion due to time zone crossing. See the UAL165 flight status page for this flight to view local times or setup timezone preferences in your user account.

Time Position Orientation Groundspeed Altitude Reporting Facility
EDT Latitude Longitude Course Direction KTS MPH feet Rate Location/Type
05:46PM 13.4833 144.8000 320° Northwest 160 184 1,400  Level Guam Center
05:47PM 13.5333 144.7833 342° North 230 265 4,000 2,940 Climbing Guam Center
05:48PM 13.5833 144.7333 316° Northwest 280 322 7,300 3,540 Climbing Guam Center
05:49PM 13.7606 144.6290 320° Northwest  Level Estimated
05:49PM 13.6500 144.6833 324° Northwest 300 345 11,100  Level Guam Center
05:50PM 13.8529 144.5728 316° Northwest  Level Estimated
05:50PM 13.7167 144.6167 316° Northwest 330 380 13,200  Level Guam Center
05:51PM 13.8819 144.4666 286° West  Level FlightAware Approximate
05:51PM 13.8000 144.5500 322° Northwest 370 426 16,400  Level Guam Center
05:52PM 13.9742 144.4106 320° Northwest  Level Estimated
05:52PM 13.8667 144.4833 316° Northwest 380 437 19,100  Level Guam Center
05:53PM 13.9500 144.4000 316° Northwest 390 449 21,800 2,580 Climbing Guam Center
05:54PM 14.0333 144.3167 316° Northwest 400 460 24,300 2,100 Climbing Guam Center
05:55PM 14.1167 144.2500 322° Northwest 400 460 26,100 1,860 Climbing Guam Center
05:56PM 14.2000 144.1833 322° Northwest 410 472 28,100 1,980 Climbing Guam Center
05:57PM 14.2833 144.1000 316° Northwest 430 495 30,100 1,980 Climbing Guam Center
05:58PM 14.3667 144.0167 316° Northwest 430 495 32,100 1,800 Climbing Guam Center
05:59PM 14.4667 143.9333 321° Northwest 430 495 33,800 1,740 Climbing Guam Center
06:00PM 14.5500 143.8500 316° Northwest 420 483 35,600 1,680 Climbing Guam Center
06:01PM 14.6333 143.7667 316° Northwest 420 483 37,200 1,680 Climbing Guam Center
06:02PM 14.7167 143.6833 316° Northwest 420 483 39,000 1,380 Climbing Guam Center
06:03PM 14.8000 143.6000 316° Northwest 410 472 40,000 480 Climbing Guam Center
06:04PM 14.8833 143.5333 322° Northwest 400 460 40,000  Level Guam Center
06:05PM 14.9667 143.4500 316° Northwest 410 472 40,000  Level Guam Center
06:06PM 15.0500 143.3667 316° Northwest 410 472 40,000  Level Guam Center
06:07PM 15.1333 143.2833 316° Northwest 410 472 40,000  Level Guam Center
06:08PM 15.2167 143.2167 322° Northwest 410 472 40,000  Level Guam Center
06:09PM 15.3000 143.1333 316° Northwest 410 472 40,000  Level Guam Center
06:10PM 15.3833 143.0500 316° Northwest 400 460 40,000  Level Guam Center
06:11PM 15.4667 142.9667 316° Northwest 400 460 40,000  Level Guam Center
06:12PM 15.5500 142.9000 322° Northwest 400 460 40,000  Level Guam Center
06:13PM 15.6333 142.8167 316° Northwest 400 460 40,000  Level Guam Center
06:14PM 15.7167 142.7500 322° Northwest 400 460 40,000  Level Guam Center
06:15PM 15.8000 142.6667 316° Northwest 400 460 40,000  Level Guam Center
06:16PM 15.8833 142.5833 316° Northwest 400 460 40,000 60 Level Guam Center
06:18PM 15.9778 142.4965 319° Northwest  Level FlightAware Approximate
06:25PM 16.5206 141.9952 319° Northwest  Level FlightAware Approximate
06:26PM 16.5958 141.9208 316° Northwest  Level FlightAware Approximate
06:26PM 16.5833 141.9500 319° Northwest 392 451 41,000  Level Oakland Oceanic (ODAPS)
06:27PM 16.6725 141.8481 319° Northwest  Level FlightAware Approximate
06:28PM 16.7510 141.7774 319° Northwest  Level FlightAware Approximate
06:29PM 16.8294 141.7067 319° Northwest  Level FlightAware Approximate
06:30PM 16.9078 141.6359 319° Northwest  Level FlightAware Approximate
06:31PM 16.9862 141.5651 319° Northwest  Level FlightAware Approximate
06:32PM 17.1608 141.4260 319° Northwest 392 451 41,000  Level FlightAware Transoceanic
06:33PM 17.2432 141.3509 319° Northwest 392 451 41,000  Level FlightAware Transoceanic
06:34PM 17.3256 141.2757 319° Northwest 392 451 41,000  Level FlightAware Transoceanic
06:35PM 17.4079 141.2005 319° Northwest 392 451 41,000  Level FlightAware Transoceanic
06:36PM 17.4902 141.1251 319° Northwest 392 451 41,000  Level FlightAware Transoceanic
06:37PM 17.5725 141.0497 319° Northwest 392 451 41,000  Level FlightAware Transoceanic
06:38PM 17.6547 140.9743 319° Northwest 392 451 41,000  Level FlightAware Transoceanic
06:39PM 17.7369 140.8988 319° Northwest 392 451 41,000  Level FlightAware Transoceanic
06:40PM 17.8191 140.8232 319° Northwest 392 451 41,000  Level FlightAware Transoceanic
06:41PM 17.9013 140.7475 319° Northwest 392 451 41,000  Level FlightAware Transoceanic
06:42PM 17.9834 140.6718 319° Northwest 392 451 41,000  Level FlightAware Transoceanic
06:43PM 18.0655 140.5960 319° Northwest 392 451 41,000  Level FlightAware Transoceanic
06:44PM 18.1476 140.5201 319° Northwest 392 451 41,000  Level FlightAware Transoceanic
06:45PM 18.2296 140.4441 319° Northwest 392 451 41,000  Level FlightAware Transoceanic
06:46PM 18.3116 140.3681 319° Northwest 392 451 41,000  Level FlightAware Transoceanic
06:47PM 18.3936 140.2920 319° Northwest 392 451 41,000  Level FlightAware Transoceanic
06:48PM 18.4755 140.2159 319° Northwest 392 451 41,000  Level FlightAware Transoceanic
06:49PM 18.5575 140.1396 319° Northwest 392 451 41,000  Level FlightAware Transoceanic
06:50PM 18.6394 140.0633 319° Northwest 392 451 41,000  Level FlightAware Transoceanic
06:51PM 18.7212 139.9869 319° Northwest 392 451 41,000  Level FlightAware Transoceanic
06:52PM 18.8030 139.9105 318° Northwest 392 451 41,000  Level FlightAware Transoceanic
06:53PM 18.8848 139.8339 318° Northwest 392 451 41,000  Level FlightAware Transoceanic
06:54PM 18.9666 139.7573 318° Northwest 392 451 41,000  Level FlightAware Transoceanic
06:55PM 19.0483 139.6806 318° Northwest 392 451 41,000  Level FlightAware Transoceanic
06:56PM 19.1300 139.6039 318° Northwest 392 451 41,000  Level FlightAware Transoceanic
06:57PM 19.2117 139.5271 318° Northwest 392 451 41,000  Level FlightAware Transoceanic
06:58PM 19.2933 139.4501 318° Northwest 392 451 41,000  Level FlightAware Transoceanic
06:59PM 19.3749 139.3732 318° Northwest 392 451 41,000  Level FlightAware Transoceanic
07:00PM 19.4565 139.2961 318° Northwest 392 451 41,000  Level FlightAware Transoceanic
07:01PM 19.5381 139.2189 318° Northwest 392 451 41,000  Level FlightAware Transoceanic
07:02PM 19.6196 139.1417 318° Northwest 392 451 41,000  Level FlightAware Transoceanic
07:03PM 19.7010 139.0644 318° Northwest 392 451 41,000  Level FlightAware Transoceanic
07:04PM 19.7825 138.9870 318° Northwest 392 451 41,000  Level FlightAware Transoceanic
07:05PM 19.8639 138.9096 318° Northwest 392 451 41,000  Level FlightAware Transoceanic
07:06PM 19.9453 138.8320 318° Northwest 392 451 41,000  Level FlightAware Transoceanic
07:07PM 20.0266 138.7544 318° Northwest 392 451 41,000  Level FlightAware Transoceanic
07:08PM 20.1079 138.6767 318° Northwest 392 451 41,000  Level FlightAware Transoceanic
07:09PM 20.1892 138.5990 318° Northwest 392 451 41,000  Level FlightAware Transoceanic
07:10PM 20.2704 138.5211 318° Northwest 392 451 41,000  Level FlightAware Transoceanic
07:11PM 20.3516 138.4432 318° Northwest 392 451 41,000  Level FlightAware Transoceanic
07:12PM 20.4328 138.3651 318° Northwest 392 451 41,000  Level FlightAware Transoceanic
07:13PM 20.5139 138.2870 318° Northwest 392 451 41,000  Level FlightAware Transoceanic
07:14PM 20.5950 138.2089 318° Northwest 392 451 41,000  Level FlightAware Transoceanic
07:15PM 20.6761 138.1306 318° Northwest 392 451 41,000  Level FlightAware Transoceanic
07:16PM 20.7571 138.0522 318° Northwest 392 451 41,000  Level FlightAware Transoceanic
07:17PM 20.8381 137.9738 318° Northwest 392 451 41,000  Level FlightAware Transoceanic
07:18PM 20.9191 137.8953 318° Northwest 392 451 41,000  Level FlightAware Transoceanic
07:19PM 21.0000 137.8167 330° Northwest 392 451 41,000  Level FlightAware Transoceanic
07:20PM 21.0923 137.7607 330° Northwest 392 451 41,000  Level FlightAware Transoceanic
07:21PM 21.1846 137.7046 330° Northwest 392 451 41,000  Level FlightAware Transoceanic
07:22PM 21.2769 137.6485 330° Northwest 392 451 41,000  Level FlightAware Transoceanic
07:23PM 21.3692 137.5923 330° Northwest 392 451 41,000  Level FlightAware Transoceanic
07:24PM 21.4614 137.5360 330° Northwest 392 451 41,000  Level FlightAware Transoceanic
07:25PM 21.5536 137.4797 330° Northwest 392 451 41,000  Level FlightAware Transoceanic
07:26PM 21.6459 137.4232 330° Northwest 392 451 41,000  Level FlightAware Transoceanic
07:27PM 21.7381 137.3668 330° Northwest 392 451 41,000  Level FlightAware Transoceanic
07:28PM 21.8302 137.3102 330° Northwest 392 451 41,000  Level FlightAware Transoceanic
07:29PM 21.9224 137.2536 330° Northwest 392 451 41,000  Level FlightAware Transoceanic
07:30PM 22.0145 137.1969 330° Northwest 392 451 41,000  Level FlightAware Transoceanic
07:31PM 22.1066 137.1401 330° Northwest 392 451 41,000  Level FlightAware Transoceanic
07:32PM 22.1987 137.0832 330° Northwest 392 451 41,000  Level FlightAware Transoceanic
07:33PM 22.2908 137.0263 330° Northwest 392 451 41,000  Level FlightAware Transoceanic
07:34PM 22.3829 136.9693 330° Northwest 392 451 41,000  Level FlightAware Transoceanic
07:35PM 22.4749 136.9122 330° Northwest 392 451 41,000  Level FlightAware Transoceanic
07:36PM 22.5669 136.8551 330° Northwest 392 451 41,000  Level FlightAware Transoceanic
07:37PM 22.6589 136.7978 330° Northwest 392 451 41,000  Level FlightAware Transoceanic
07:38PM 22.7509 136.7405 330° Northwest 392 451 41,000  Level FlightAware Transoceanic
07:39PM 22.8428 136.6831 330° Northwest 392 451 41,000  Level FlightAware Transoceanic
07:40PM 22.9347 136.6257 330° Northwest 392 451 41,000  Level FlightAware Transoceanic
07:41PM 23.0267 136.5681 330° Northwest 392 451 41,000  Level FlightAware Transoceanic
07:42PM 23.1185 136.5105 330° Northwest 392 451 41,000  Level FlightAware Transoceanic
07:43PM 23.2104 136.4528 330° Northwest 392 451 41,000  Level FlightAware Transoceanic
07:44PM 23.3023 136.3950 330° Northwest 392 451 41,000  Level FlightAware Transoceanic
07:45PM 23.3941 136.3372 330° Northwest 392 451 41,000  Level FlightAware Transoceanic
07:46PM 23.4859 136.2792 330° Northwest 392 451 41,000  Level FlightAware Transoceanic
07:47PM 23.5777 136.2212 330° Northwest 392 451 41,000  Level FlightAware Transoceanic
07:48PM 23.6695 136.1631 330° Northwest 392 451 41,000  Level FlightAware Transoceanic
07:49PM 23.7612 136.1049 330° Northwest 392 451 41,000  Level FlightAware Transoceanic
07:50PM 23.8529 136.0466 330° Northwest 392 451 41,000  Level FlightAware Transoceanic
07:51PM 23.9446 135.9883 330° Northwest 392 451 41,000  Level FlightAware Transoceanic
07:52PM 24.0363 135.9299 330° Northwest 392 451 41,000  Level FlightAware Transoceanic
07:53PM 24.1280 135.8714 330° Northwest 392 451 41,000  Level FlightAware Transoceanic
07:54PM 24.2196 135.8128 330° Northwest 392 451 41,000  Level FlightAware Transoceanic
07:55PM 24.3112 135.7541 330° Northwest 392 451 41,000  Level FlightAware Transoceanic
07:56PM 24.4028 135.6953 330° Northwest 392 451 41,000  Level FlightAware Transoceanic
07:57PM 24.4943 135.6365 330° Northwest 392 451 41,000  Level FlightAware Transoceanic
07:58PM 24.5859 135.5775 330° Northwest 392 451 41,000  Level FlightAware Transoceanic
07:59PM 24.6774 135.5185 330° Northwest 392 451 41,000  Level FlightAware Transoceanic
08:00PM 24.7689 135.4594 330° Northwest 392 451 41,000  Level FlightAware Transoceanic
08:01PM 24.8604 135.4002 330° Northwest 392 451 41,000  Level FlightAware Transoceanic
08:02PM 24.9518 135.3409 330° Northwest 392 451 41,000  Level FlightAware Transoceanic
08:03PM 25.0432 135.2815 330° Northwest 392 451 41,000  Level FlightAware Transoceanic
08:04PM 25.1346 135.2221 329° Northwest 392 451 41,000  Level FlightAware Transoceanic
08:05PM 25.2260 135.1625 329° Northwest 392 451 41,000  Level FlightAware Transoceanic
08:06PM 25.3174 135.1029 329° Northwest 392 451 41,000  Level FlightAware Transoceanic
08:07PM 25.4087 135.0432 329° Northwest 392 451 41,000  Level FlightAware Transoceanic
08:08PM 25.4923 134.9761 324° Northwest  Level FlightAware Approximate
08:09PM 25.4907 134.9784 329° Northwest  Level FlightAware Approximate
08:10PM 25.5792 134.9196 329° Northwest  Level FlightAware Approximate
08:11PM 25.6677 134.8607 329° Northwest  Level FlightAware Approximate
08:12PM 25.7562 134.8017 329° Northwest  Level FlightAware Approximate
08:13PM 25.8446 134.7427 329° Northwest  Level FlightAware Approximate
08:14PM 25.9331 134.6835 329° Northwest  Level FlightAware Approximate
08:15PM 26.0215 134.6243 329° Northwest  Level FlightAware Approximate
08:16PM 26.1098 134.5649 329° Northwest  Level FlightAware Approximate
08:17PM 26.1982 134.5055 329° Northwest  Level FlightAware Approximate
08:18PM 26.2865 134.4460 329° Northwest  Level FlightAware Approximate
08:19PM 26.3748 134.3864 329° Northwest  Level FlightAware Approximate
08:20PM 26.4631 134.3266 329° Northwest  Level FlightAware Approximate
08:21PM 26.5514 134.2668 329° Northwest  Level FlightAware Approximate
08:22PM 26.6396 134.2070 329° Northwest  Level FlightAware Approximate
08:23PM 26.7278 134.1470 329° Northwest  Level FlightAware Approximate
08:24PM 26.8160 134.0869 329° Northwest  Level FlightAware Approximate
08:25PM 26.9042 134.0267 329° Northwest  Level FlightAware Approximate
08:26PM 26.9923 133.9665 329° Northwest  Level FlightAware Approximate
08:27PM 27.0804 133.9061 329° Northwest  Level FlightAware Approximate
08:28PM 27.1685 133.8457 329° Northwest  Level FlightAware Approximate
08:29PM 27.2565 133.7851 329° Northwest  Level FlightAware Approximate
08:30PM 27.3445 133.7245 329° Northwest  Level FlightAware Approximate
08:31PM 27.4325 133.6637 329° Northwest  Level FlightAware Approximate
08:32PM 27.5205 133.6029 328° Northwest  Level FlightAware Approximate
08:33PM 27.6085 133.5420 328° Northwest  Level FlightAware Approximate
08:34PM 27.6964 133.4809 328° Northwest  Level FlightAware Approximate
08:35PM 27.7843 133.4198 328° Northwest  Level FlightAware Approximate
08:36PM 27.8721 133.3586 328° Northwest  Level FlightAware Approximate
08:37PM 27.9600 133.2973 328° Northwest  Level FlightAware Approximate
08:38PM 28.0478 133.2358 328° Northwest  Level FlightAware Approximate
08:39PM 28.1356 133.1743 328° Northwest  Level FlightAware Approximate
08:40PM 28.2233 133.1127 328° Northwest  Level FlightAware Approximate
08:41PM 28.3111 133.0509 328° Northwest  Level FlightAware Approximate
08:42PM 28.3988 132.9891 328° Northwest  Level FlightAware Approximate
08:43PM 28.4864 132.9271 328° Northwest  Level FlightAware Approximate
08:44PM 28.5740 132.8651 328° Northwest  Level FlightAware Approximate
08:45PM 28.6616 132.8029 328° Northwest  Level FlightAware Approximate
08:46PM 28.7492 132.7406 328° Northwest  Level FlightAware Approximate
08:47PM 28.8367 132.6782 328° Northwest  Level FlightAware Approximate
08:48PM 28.9242 132.6157 328° Northwest  Level FlightAware Approximate
08:49PM 29.0117 132.5531 328° Northwest  Level FlightAware Approximate
08:50PM 29.0992 132.4904 328° Northwest  Level FlightAware Approximate
08:51PM 29.1866 132.4276 328° Northwest  Level FlightAware Approximate
08:52PM 29.2740 132.3647 328° Northwest  Level FlightAware Approximate
08:53PM 29.3613 132.3016 328° Northwest  Level FlightAware Approximate
08:54PM 29.4487 132.2385 328° Northwest  Level FlightAware Approximate
08:55PM 29.5360 132.1752 328° Northwest  Level FlightAware Approximate
08:56PM 29.6232 132.1118 327° Northwest  Level FlightAware Approximate
08:57PM 29.7101 132.0477 327° Northwest  Level FlightAware Approximate
08:58PM 29.7969 131.9834 327° Northwest  Level FlightAware Approximate
08:59PM 29.8837 131.9191 327° Northwest  Level FlightAware Approximate
09:00PM 29.9705 131.8546 327° Northwest  Level FlightAware Approximate
09:01PM 30.0572 131.7900 327° Northwest  Level FlightAware Approximate
09:02PM 30.1439 131.7253 327° Northwest  Level FlightAware Approximate
09:03PM 30.2307 131.6606 327° Northwest  Level FlightAware Approximate
09:04PM 30.3177 131.5963 327° Northwest  Level FlightAware Approximate
09:05PM 30.4046 131.5318 327° Northwest  Level FlightAware Approximate
09:06PM 30.4915 131.4672 327° Northwest  Level FlightAware Approximate
09:07PM 30.5784 131.4025 327° Northwest  Level FlightAware Approximate
09:08PM 30.6652 131.3376 327° Northwest  Level FlightAware Approximate
09:09PM 30.7520 131.2727 327° Northwest  Level FlightAware Approximate
09:10PM 30.8388 131.2076 327° Northwest  Level FlightAware Approximate
09:11PM 30.9255 131.1424 327° Northwest  Level FlightAware Approximate
09:12PM 31.0122 131.0771 327° Northwest  Level FlightAware Approximate
09:13PM 31.0989 131.0117 327° Northwest  Level FlightAware Approximate
09:14PM 31.1844 130.9469 327° Northwest  Level FlightAware Approximate
09:14PM 30.5970 131.1970 327° Northwest 344 396 41,000  Level FlightAware
09:15PM 31.2700 130.8821 327° Northwest  Level FlightAware Approximate
09:15PM 30.6600 131.1690 339° North 344 396 41,000  Level FlightAware
09:15PM 30.7110 131.1460 339° North 344 396 41,000  Level FlightAware
09:16PM 30.7610 131.1240 339° North 344 396 41,000  Level FlightAware
09:17PM 30.8590 131.0830 340° North 345 397 41,000  Level FlightAware
09:17PM 30.9190 131.0570 340° North 346 398 41,000  Level FlightAware
09:18PM 30.9860 131.0270 339° North 347 399 41,000  Level FlightAware
09:19PM 31.0480 131.0000 340° North 349 402 41,000  Level FlightAware
09:20PM 31.1150 130.9710 340° North 352 405 41,000  Level FlightAware
09:20PM 31.1770 130.9440 340° North 352 405 41,000  Level FlightAware
09:21PM 31.2370 130.9170 339° North 354 407 41,000  Level FlightAware
09:22PM 31.3070 130.8870 340° North 354 407 41,000  Level FlightAware
09:22PM 31.3720 130.8580 339° North 352 405 41,000  Level FlightAware
09:23PM 31.4370 130.8290 339° North 351 404 41,000  Level FlightAware
09:24PM 31.4970 130.8020 339° North 351 404 41,000  Level FlightAware
09:25PM 31.5660 130.7720 340° North 351 404 41,000  Level FlightAware
09:25PM 31.6210 130.7470 339° North 350 403 41,000  Level FlightAware
09:26PM 31.6930 130.7150 339° North 350 403 41,000  Level FlightAware
09:27PM 31.7550 130.6880 340° North 349 402 41,000  Level FlightAware
09:27PM 31.8150 130.6610 339° North 348 400 41,000  Level FlightAware
09:28PM 31.8820 130.6310 339° North 349 402 41,000  Level FlightAware
09:29PM 31.9410 130.6040 339° North 349 402 41,000  Level FlightAware
09:29PM 32.0110 130.5720 339° North 349 402 41,000  Level FlightAware
09:30PM 32.0670 130.5470 339° North 350 403 41,000  Level FlightAware
09:31PM 32.1320 130.5190 340° North 349 402 41,000  Level FlightAware
09:32PM 32.2000 130.4880 339° North 348 400 41,000  Level FlightAware
09:32PM 32.2600 130.4610 339° North 351 404 41,000 -600 Level FlightAware
09:33PM 32.3270 130.4300 339° North 339 390 40,200 -1,020 Descending FlightAware
09:34PM 32.3840 130.4050 340° North 346 398 39,600 -900 Descending FlightAware
09:34PM 32.4420 130.3780 339° North 356 410 39,000 -960 Descending FlightAware
09:35PM 32.5170 130.3440 339° North 366 421 38,300 -1,020 Descending FlightAware
09:36PM 32.5800 130.3160 339° North 369 425 37,600 -960 Descending FlightAware
09:36PM 32.6340 130.2920 339° North 370 426 37,100 -2,520 Descending FlightAware
09:39PM 32.8207 130.1405 326° Northwest  Level FlightAware Approximate
09:40PM 32.9173 130.1793 344° North  Level Estimated
09:41PM 33.0020 130.1117 326° Northwest  Level FlightAware Approximate
09:42PM 33.0939 130.1645 337° Northwest  Level Estimated
09:43PM 33.1596 130.0714 310° West  Level FlightAware Approximate
09:44PM 33.2416 130.1438 342° North  Level Estimated
09:45PM 33.3197 130.0654 320° Northwest  Level FlightAware Approximate
09:46PM 33.3978 129.9869 320° Northwest  Level FlightAware Approximate
09:47PM 33.4427 130.0965 342° North  Level Estimated
09:47PM 33.6640 129.8160 342° North 303 349 10,300  Level FlightAware
09:47PM 33.7070 129.8020 345° North 312 359 9,500 -780 Descending FlightAware
09:48PM 33.7770 129.8170 10° North 320 368 9,000 -480 Descending FlightAware
09:48PM 33.7890 129.8190 North 320 368 9,000 -2,880 Level FlightAware
09:49PM 33.7890 129.8930 90° East 302 348 7,800 -1,680 Descending FlightAware
09:49PM 33.8060 129.9380 66° East 280 322 7,600 -540 Descending FlightAware
09:50PM 33.8170 129.9700 68° East 264 304 7,300 -840 Descending FlightAware
09:50PM 33.8290 130.0030 66° East 259 298 7,000 -900 Descending FlightAware
09:51PM 33.8460 130.0510 67° East 252 290 6,400 -960 Descending FlightAware
09:51PM 33.8620 130.0950 66° East 251 289 5,800 -1,200 Descending FlightAware
09:52PM 33.8840 130.1570 67° East 247 284 5,100 -1,200 Descending FlightAware
09:52PM 33.8970 130.1960 68° East 237 273 4,600 -900 Descending FlightAware
09:53PM 33.8930 130.2270 99° East 223 257 4,300 -900 Descending FlightAware
09:53PM 33.8850 130.2410 125° Southeast 213 245 4,000 -1,200 Descending FlightAware
09:53PM 33.8720 130.2520 145° Southeast 212 244 3,700 -960 Descending FlightAware
09:54PM 33.8480 130.2700 148° Southeast 210 242 3,300 -780 Descending FlightAware
09:54PM 33.8270 130.2840 151° Southeast 192 221 3,000 -360 Descending FlightAware
09:55PM 33.8090 130.2970 149° Southeast 192 221 3,000 -900 Level FlightAware
09:55PM 33.7930 130.3080 150° Southeast 198 228 2,200 -1,020 Descending FlightAware
09:56PM 33.7720 130.3230 149° Southeast 195 224 2,000 -240 Descending FlightAware
09:56PM 33.7510 130.3380 149° Southeast 197 227 2,000  Level FlightAware
09:56PM 33.7320 130.3520 148° Southeast 197 227 2,000  Level FlightAware
09:57PM 33.7070 130.3680 152° Southeast 172 198 2,000  Level FlightAware
09:57PM 33.6930 130.3770 152° Southeast 158 182 2,000 -120 Level FlightAware
09:58PM 33.6770 130.3890 148° Southeast 153 176 1,900 -600 Descending FlightAware
09:58PM 33.6550 130.4030 152° Southeast 139 160 1,400 -840 Descending FlightAware
09:59PM 33.6410 130.4130 149° Southeast 133 153 1,100 -780 Descending FlightAware
09:59PM 33.6260 130.4230 151° Southeast 132 152 700 -420 Descending FlightAware
10:00PM 33.6080 130.4360 149° Southeast 130 150 600 -180 Descending FlightAware